Time;durP1;ratioP1;P1;durP2;ratioP2;P2;SDS_P1;SDS_P2;PMS_P1;PMS_P2;Temp;Humidity;BMP_temperature;BMP_pressure;BME280_temperature;BME280_humidity;BME280_pressure;Samples;Min_cycle;Max_cycle;Signal;HPM_P1;HPM_P2
2022/09/14 00:01:52;;;;;;;1.08;0.85;;;20.10;65.90;;;;;;5053755;28;20049;-73
2022/09/14 00:04:19;;;;;;;0.80;0.70;;;20.10;65.90;;;;;;5054189;28;20059;-73
2022/09/14 00:06:46;;;;;;;1.48;0.90;;;20.10;65.90;;;;;;5055130;28;20068;-73
2022/09/14 00:09:14;;;;;;;1.33;0.80;;;20.10;65.90;;;;;;5053695;28;20060;-72
2022/09/14 00:11:41;;;;;;;1.52;0.80;;;20.10;65.90;;;;;;5053881;28;20053;-72
2022/09/14 00:14:08;;;;;;;1.70;0.80;;;20.10;66.00;;;;;;5053795;28;20512;-72
2022/09/14 00:16:36;;;;;;;2.03;1.08;;;20.10;65.90;;;;;;5053721;28;20055;-72
2022/09/14 00:19:05;;;;;;;1.50;0.90;;;20.00;65.90;;;;;;5053984;28;20065;-73
2022/09/14 00:21:32;;;;;;;0.75;0.60;;;20.00;65.90;;;;;;5053011;28;20486;-73
2022/09/14 00:23:59;;;;;;;1.48;0.85;;;20.00;65.90;;;;;;5053677;28;20056;-72
2022/09/14 00:26:26;;;;;;;0.88;0.82;;;20.00;65.90;;;;;;5053769;28;20079;-72
2022/09/14 00:28:55;;;;;;;0.65;0.65;;;20.00;65.90;;;;;;5053763;28;20068;-73
2022/09/14 00:31:22;;;;;;;1.23;0.90;;;20.00;65.90;;;;;;5053510;28;20056;-72
2022/09/14 00:33:49;;;;;;;1.17;0.88;;;20.00;65.80;;;;;;5054816;28;20405;-73
2022/09/14 00:36:18;;;;;;;1.10;0.80;;;20.00;65.90;;;;;;5053223;28;20508;-72
2022/09/14 00:38:45;;;;;;;1.10;0.90;;;20.00;65.80;;;;;;5053456;28;20136;-73
2022/09/14 00:41:13;;;;;;;2.28;0.85;;;20.00;65.80;;;;;;5053216;28;20056;-72
2022/09/14 00:43:54;;;;;;;1.15;0.88;;;20.00;65.90;;;;;;5053446;28;20057;-72
2022/09/14 00:46:21;;;;;;;1.35;0.80;;;20.00;65.80;;;;;;5053495;28;20084;-73
2022/09/14 00:48:48;;;;;;;2.28;0.93;;;20.00;65.90;;;;;;5053185;28;20057;-72
2022/09/14 00:51:16;;;;;;;0.82;0.75;;;20.00;65.80;;;;;;5052749;28;20061;-72
2022/09/14 00:53:43;;;;;;;1.50;0.88;;;20.00;68.10;;;;;;5052313;28;20065;-73
2022/09/14 00:56:10;;;;;;;1.08;0.80;;;20.00;65.80;;;;;;5053020;28;20489;-72
2022/09/14 00:58:36;;;;;;;0.88;0.60;;;20.00;65.80;;;;;;5069560;28;20140;-72
2022/09/14 01:01:03;;;;;;;1.20;0.90;;;19.90;65.70;;;;;;5052788;28;20052;-72
2022/09/14 01:03:30;;;;;;;1.13;0.70;;;19.90;65.80;;;;;;5052947;28;20060;-73
2022/09/14 01:06:01;;;;;;;0.70;0.70;;;19.90;65.70;;;;;;5052162;28;20394;-72
2022/09/14 01:08:42;;;;;;;1.13;0.60;;;19.90;65.70;;;;;;5053136;28;20053;-73
2022/09/14 01:11:15;;;;;;;1.50;0.85;;;19.90;65.70;;;;;;5052767;28;20152;-72
2022/09/14 01:13:46;;;;;;;0.60;0.60;;;19.90;65.80;;;;;;5052791;28;20545;-72
2022/09/14 01:16:18;;;;;;;1.23;0.77;;;18.90;67.60;;;;;;5052850;28;20063;-72
2022/09/14 01:18:46;;;;;;;1.02;0.88;;;19.90;65.80;;;;;;5052847;28;20061;-72
2022/09/14 01:21:14;;;;;;;0.90;0.80;;;19.90;65.80;;;;;;5052084;28;20484;-72
2022/09/14 01:23:47;;;;;;;1.42;0.73;;;19.90;65.80;;;;;;5053702;28;20049;-72
2022/09/14 01:26:35;;;;;;;2.85;1.00;;;19.90;65.70;;;;;;5069281;28;20523;-72
2022/09/14 01:29:05;;;;;;;0.85;0.77;;;19.90;65.70;;;;;;5047521;28;20056;-73
2022/09/14 01:31:34;;;;;;;0.93;0.73;;;19.80;65.80;;;;;;5052381;28;20049;-73
2022/09/14 01:34:04;;;;;;;1.13;0.75;;;19.80;65.70;;;;;;5052652;28;20053;-72
2022/09/14 01:36:31;;;;;;;0.93;0.65;;;19.80;65.80;;;;;;5052224;28;20105;-72
2022/09/14 01:38:57;;;;;;;0.73;0.70;;;19.80;65.80;;;;;;5052427;28;20067;-72
2022/09/14 01:41:25;;;;;;;0.93;0.75;;;19.80;65.80;;;;;;5051641;28;20053;-72
2022/09/14 01:43:53;;;;;;;1.63;0.85;;;19.80;65.80;;;;;;5052256;28;20409;-72
2022/09/14 01:46:21;;;;;;;1.45;0.90;;;19.80;65.80;;;;;;5052366;28;20064;-72
2022/09/14 01:48:50;;;;;;;1.20;0.80;;;19.80;65.70;;;;;;5052244;28;20063;-72
2022/09/14 01:51:19;;;;;;;1.70;0.80;;;19.80;65.80;;;;;;5052749;28;20430;-72
2022/09/14 01:53:47;;;;;;;1.00;0.70;;;19.80;65.80;;;;;;5035979;28;20056;-72
2022/09/14 01:56:15;;;;;;;1.17;0.82;;;19.80;65.80;;;;;;5052926;28;20044;-72
2022/09/14 01:58:44;;;;;;;0.77;0.77;;;19.70;65.70;;;;;;5052369;28;20060;-74
2022/09/14 02:01:14;;;;;;;1.65;0.80;;;19.80;65.80;;;;;;5051670;28;20416;-74
2022/09/14 02:03:44;;;;;;;1.02;0.70;;;19.70;65.70;;;;;;5051935;28;20052;-74
2022/09/14 02:06:13;;;;;;;1.42;0.80;;;19.70;65.70;;;;;;5052076;28;20063;-73
2022/09/14 02:08:40;;;;;;;3.30;0.93;;;19.70;65.80;;;;;;5051757;28;20092;-74
2022/09/14 02:11:07;;;;;;;0.82;0.82;;;19.60;68.20;;;;;;5052892;28;20056;-74
2022/09/14 02:13:34;;;;;;;1.10;0.80;;;19.70;65.80;;;;;;5051856;28;20061;-74
2022/09/14 02:16:01;;;;;;;1.92;0.80;;;19.70;65.80;;;;;;5051743;28;20045;-73
2022/09/14 02:18:28;;;;;;;0.57;0.55;;;19.70;65.80;;;;;;5051448;28;20132;-74
2022/09/14 02:20:57;;;;;;;0.82;0.60;;;19.70;65.70;;;;;;5051388;28;20055;-74
2022/09/14 02:23:25;;;;;;;1.05;0.80;;;19.70;65.70;;;;;;5051679;28;20140;-74
2022/09/14 02:25:51;;;;;;;1.42;0.73;;;19.70;66.30;;;;;;5052593;28;20052;-73
2022/09/14 02:28:18;;;;;;;2.33;0.77;;;19.60;65.70;;;;;;5051683;28;20404;-74
2022/09/14 02:30:48;;;;;;;1.42;0.82;;;19.60;65.70;;;;;;5050986;28;20049;-74
2022/09/14 02:33:17;;;;;;;0.70;0.70;;;19.60;65.70;;;;;;5051287;28;20053;-74
2022/09/14 02:35:47;;;;;;;1.08;0.73;;;19.60;66.30;;;;;;5051253;28;20049;-74
2022/09/14 02:38:19;;;;;;;2.50;1.10;;;19.70;65.80;;;;;;5051714;28;20079;-74
2022/09/14 02:40:51;;;;;;;2.28;0.90;;;19.60;65.70;;;;;;5050940;28;20490;-74
2022/09/14 02:43:26;;;;;;;0.80;0.70;;;19.60;65.80;;;;;;5050725;28;20049;-73
2022/09/14 02:45:55;;;;;;;;;;;19.60;65.70;;;;;;5048641;28;20050;-74
2022/09/14 02:48:23;;;;;;;1.20;0.85;;;19.60;65.70;;;;;;5050801;28;19921;-74
2022/09/14 02:50:51;;;;;;;0.60;0.60;;;19.60;65.90;;;;;;5051913;28;20037;-74
2022/09/14 02:53:23;;;;;;;1.40;0.80;;;19.50;65.80;;;;;;5050487;28;20052;-74
2022/09/14 02:55:52;;;;;;;1.48;0.75;;;19.50;65.70;;;;;;5048181;28;20055;-74
2022/09/14 02:58:18;;;;;;;1.60;0.80;;;19.60;65.80;;;;;;5050917;28;20520;-73
2022/09/14 03:00:46;;;;;;;1.90;0.88;;;19.50;65.80;;;;;;5050182;28;20045;-74
2022/09/14 03:03:17;;;;;;;2.15;0.80;;;19.60;65.80;;;;;;5051921;28;20049;-74
2022/09/14 03:05:43;;;;;;;1.08;0.82;;;19.70;66.30;;;;;;5050518;28;20060;-74
2022/09/14 03:08:10;;;;;;;1.05;0.80;;;19.50;65.80;;;;;;5051307;28;20457;-74
2022/09/14 03:10:38;;;;;;;0.82;0.70;;;19.60;65.80;;;;;;5051155;28;20417;-73
2022/09/14 03:13:05;;;;;;;0.73;0.70;;;19.60;65.80;;;;;;5051840;28;20124;-73
2022/09/14 03:15:32;;;;;;;1.55;0.70;;;19.60;65.80;;;;;;5050759;28;20059;-73
2022/09/14 03:17:58;;;;;;;1.60;0.80;;;19.50;65.80;;;;;;5052265;28;20485;-72
2022/09/14 03:20:26;;;;;;;0.85;0.85;;;19.50;65.80;;;;;;5052734;28;20051;-73
2022/09/14 03:22:53;;;;;;;0.90;0.73;;;19.60;65.80;;;;;;5051865;28;20482;-72
2022/09/14 03:25:21;;;;;;;0.85;0.70;;;19.50;65.80;;;;;;5050294;28;20091;-72
2022/09/14 03:27:50;;;;;;;1.00;0.80;;;19.60;65.80;;;;;;5050179;28;20057;-72
2022/09/14 03:30:17;;;;;;;1.63;0.80;;;19.50;65.70;;;;;;5051281;28;20049;-72
2022/09/14 03:32:43;;;;;;;1.73;0.80;;;19.50;65.70;;;;;;5050547;28;20048;-72
2022/09/14 03:35:10;;;;;;;1.05;0.70;;;19.50;65.70;;;;;;5051627;28;20409;-73
2022/09/14 03:37:39;;;;;;;1.00;0.90;;;19.50;65.80;;;;;;5051523;28;20053;-73
2022/09/14 03:40:07;;;;;;;1.35;0.80;;;19.50;65.70;;;;;;5050303;28;20057;-72
2022/09/14 03:42:33;;;;;;;1.45;0.75;;;19.50;65.70;;;;;;5050190;28;20056;-75
2022/09/14 03:45:01;;;;;;;1.40;0.90;;;19.50;65.70;;;;;;5051231;28;20055;-75
2022/09/14 03:47:28;;;;;;;0.88;0.70;;;19.50;65.70;;;;;;5050426;28;20144;-74
2022/09/14 03:49:55;;;;;;;2.00;0.85;;;19.50;65.70;;;;;;5051423;28;20052;-75
2022/09/14 03:52:22;;;;;;;8.45;1.65;;;19.50;65.70;;;;;;5051530;28;20057;-75
2022/09/14 03:54:48;;;;;;;0.82;0.80;;;19.50;65.70;;;;;;5051537;28;20059;-74
2022/09/14 03:57:15;;;;;;;1.45;0.80;;;19.40;65.60;;;;;;5050860;28;20055;-74
2022/09/14 03:59:42;;;;;;;1.90;0.85;;;19.40;65.60;;;;;;5050382;28;20086;-75
2022/09/14 04:02:10;;;;;;;1.23;0.70;;;19.50;65.70;;;;;;5050089;28;20053;-74
2022/09/14 04:04:37;;;;;;;0.70;0.70;;;19.40;65.60;;;;;;5050294;28;20075;-74
2022/09/14 04:07:03;;;;;;;1.23;0.60;;;18.60;67.10;;;;;;5050359;28;20059;-75
2022/09/14 04:09:30;;;;;;;1.17;0.70;;;19.40;65.60;;;;;;5050223;28;20056;-75
2022/09/14 04:11:57;;;;;;;1.02;0.80;;;19.40;65.60;;;;;;5049745;28;20059;-74
2022/09/14 04:14:24;;;;;;;0.95;0.75;;;19.40;65.60;;;;;;5051240;28;20600;-74
2022/09/14 04:16:50;;;;;;;2.05;0.98;;;19.40;65.60;;;;;;5051210;28;20052;-75
2022/09/14 04:19:18;;;;;;;1.65;0.90;;;19.40;65.60;;;;;;5051303;28;20045;-74
2022/09/14 04:21:45;;;;;;;0.68;0.65;;;19.40;65.60;;;;;;5049973;28;20075;-74
2022/09/14 04:24:13;;;;;;;0.63;0.63;;;19.40;65.60;;;;;;5050095;28;20399;-74
2022/09/14 04:26:40;;;;;;;1.60;0.80;;;19.40;65.60;;;;;;5049800;28;20486;-75
2022/09/14 04:29:07;;;;;;;2.70;0.63;;;19.40;65.60;;;;;;5052090;28;20063;-75
2022/09/14 04:31:34;;;;;;;1.20;0.82;;;19.40;65.60;;;;;;5053264;28;20060;-74
2022/09/14 04:34:01;;;;;;;0.80;0.77;;;19.40;65.60;;;;;;5053531;28;20053;-74
2022/09/14 04:36:29;;;;;;;1.40;0.90;;;19.40;65.60;;;;;;5053791;28;20405;-74
2022/09/14 04:38:57;;;;;;;0.93;0.70;;;19.40;65.60;;;;;;5054410;28;20045;-74
2022/09/14 04:41:24;;;;;;;1.95;0.80;;;19.30;65.50;;;;;;5053244;28;20060;-74
2022/09/14 04:43:51;;;;;;;1.08;0.80;;;19.40;65.60;;;;;;5053143;28;20496;-74
2022/09/14 04:46:19;;;;;;;0.60;0.60;;;19.40;65.60;;;;;;5053150;28;20063;-74
2022/09/14 04:48:45;;;;;;;1.15;0.70;;;19.40;65.60;;;;;;5054440;28;20057;-73
2022/09/14 04:51:15;;;;;;;1.20;0.80;;;19.40;65.60;;;;;;5054307;28;20063;-74
2022/09/14 04:53:43;;;;;;;1.10;0.80;;;19.40;65.60;;;;;;5053109;28;20375;-73
2022/09/14 04:56:11;;;;;;;1.30;0.80;;;19.30;65.50;;;;;;5053132;28;20508;-74
2022/09/14 04:58:39;;;;;;;0.90;0.70;;;18.90;67.00;;;;;;5053414;28;20072;-74
2022/09/14 05:01:07;;;;;;;2.90;0.75;;;19.30;65.50;;;;;;5052601;28;20063;-75
2022/09/14 05:03:34;;;;;;;0.80;0.70;;;19.30;66.70;;;;;;5052679;28;20052;-75
2022/09/14 05:06:01;;;;;;;1.40;0.90;;;19.30;65.50;;;;;;5054097;28;20049;-75
2022/09/14 05:08:28;;;;;;;1.20;1.00;;;19.30;65.50;;;;;;5053857;28;20051;-74
2022/09/14 05:10:57;;;;;;;1.08;0.80;;;19.30;65.70;;;;;;5052689;28;20059;-75
2022/09/14 05:13:24;;;;;;;1.25;0.80;;;19.30;65.50;;;;;;5052909;28;20063;-75
2022/09/14 05:15:50;;;;;;;0.70;0.70;;;19.30;65.50;;;;;;5053702;28;20068;-73
2022/09/14 05:18:17;;;;;;;0.77;0.73;;;19.30;65.40;;;;;;5052654;28;20102;-74
2022/09/14 05:20:45;;;;;;;2.35;0.80;;;19.30;65.50;;;;;;5052743;28;20052;-75
2022/09/14 05:23:11;;;;;;;1.15;0.80;;;19.30;65.50;;;;;;5052503;28;20059;-74
2022/09/14 05:25:38;;;;;;;1.60;0.90;;;19.30;65.50;;;;;;5052284;28;20059;-74
2022/09/14 05:28:06;;;;;;;0.98;0.88;;;19.30;65.50;;;;;;5052507;28;20487;-73
2022/09/14 05:30:33;;;;;;;1.80;0.88;;;19.30;65.40;;;;;;5052154;28;20061;-73
2022/09/14 05:32:59;;;;;;;0.80;0.65;;;19.30;65.40;;;;;;5053657;28;20455;-73
2022/09/14 05:35:26;;;;;;;0.60;0.60;;;19.30;65.50;;;;;;5053822;28;20051;-72
2022/09/14 05:37:53;;;;;;;1.05;0.80;;;19.90;67.90;;;;;;5052929;28;20055;-75
2022/09/14 05:40:19;;;;;;;1.38;0.75;;;19.30;65.40;;;;;;5051702;28;20489;-74
2022/09/14 05:42:46;;;;;;;1.65;0.80;;;19.30;65.50;;;;;;5053405;28;20053;-72
2022/09/14 05:45:14;;;;;;;2.28;0.80;;;19.30;65.50;;;;;;5052365;28;20053;-72
2022/09/14 05:47:41;;;;;;;2.03;0.80;;;19.30;65.50;;;;;;5051742;28;20056;-72
2022/09/14 05:50:08;;;;;;;1.67;0.90;;;19.30;65.50;;;;;;5051999;28;20056;-73
2022/09/14 05:52:35;;;;;;;0.80;0.60;;;19.30;65.50;;;;;;5068860;28;20049;-75
2022/09/14 05:55:02;;;;;;;1.88;0.90;;;19.30;65.50;;;;;;5052092;28;20139;-74
2022/09/14 05:57:28;;;;;;;0.90;0.63;;;19.20;65.40;;;;;;5052131;28;20141;-75
2022/09/14 05:59:55;;;;;;;1.45;1.00;;;19.30;65.50;;;;;;5051706;28;20055;-74
2022/09/14 06:02:23;;;;;;;1.83;0.90;;;19.20;65.40;;;;;;5051695;28;20055;-74
2022/09/14 06:04:50;;;;;;;0.90;0.70;;;19.30;65.50;;;;;;5051915;28;20058;-73
2022/09/14 06:07:17;;;;;;;1.13;0.98;;;19.30;65.40;;;;;;5051625;28;20056;-75
2022/09/14 06:09:43;;;;;;;0.98;0.80;;;19.30;65.40;;;;;;5051931;28;20052;-74
2022/09/14 06:12:10;;;;;;;1.08;0.70;;;19.30;65.40;;;;;;5051823;28;20052;-73
2022/09/14 06:14:37;;;;;;;0.82;0.75;;;19.30;65.40;;;;;;5051981;28;20061;-74
2022/09/14 06:17:04;;;;;;;1.48;0.77;;;19.30;65.40;;;;;;5052601;28;20401;-72
2022/09/14 06:19:32;;;;;;;1.00;0.77;;;19.30;65.40;;;;;;5052936;28;20080;-72
2022/09/14 06:22:00;;;;;;;1.40;0.88;;;19.30;65.40;;;;;;5052446;28;20439;-73
2022/09/14 06:24:27;;;;;;;1.13;0.82;;;19.30;65.40;;;;;;5051602;28;20053;-73
2022/09/14 06:26:54;;;;;;;0.82;0.70;;;19.30;65.40;;;;;;5052938;28;20045;-73
2022/09/14 06:29:20;;;;;;;2.65;1.17;;;19.30;65.40;;;;;;5051529;28;20400;-73
2022/09/14 06:31:47;;;;;;;1.17;0.88;;;19.30;65.40;;;;;;5051035;28;20052;-73
2022/09/14 06:34:14;;;;;;;2.00;0.80;;;19.40;67.10;;;;;;5051576;28;20052;-73
2022/09/14 06:36:43;;;;;;;0.75;0.75;;;19.30;65.50;;;;;;5051298;28;20060;-73
2022/09/14 06:39:10;;;;;;;1.00;0.90;;;19.30;65.50;;;;;;5051674;28;20068;-72
2022/09/14 06:41:37;;;;;;;1.08;0.77;;;19.30;65.60;;;;;;5050998;28;20059;-72
2022/09/14 06:44:04;;;;;;;0.70;0.70;;;19.30;65.60;;;;;;5051304;28;20055;-73
2022/09/14 06:46:31;;;;;;;1.42;0.88;;;19.40;65.70;;;;;;5051024;28;20053;-73
2022/09/14 06:48:59;;;;;;;1.63;0.80;;;19.40;65.70;;;;;;5051221;28;20049;-73
2022/09/14 06:51:28;;;;;;;1.05;0.80;;;19.40;65.70;;;;;;5050398;28;20057;-73
2022/09/14 06:53:58;;;;;;;2.05;0.98;;;19.40;65.70;;;;;;5050725;28;20045;-73
2022/09/14 06:56:25;;;;;;;1.35;0.90;;;19.40;65.70;;;;;;5051046;28;20056;-73
2022/09/14 06:58:52;;;;;;;1.35;0.80;;;19.40;65.70;;;;;;5051189;28;20055;-72
2022/09/14 07:01:19;;;;;;;2.60;0.98;;;19.40;65.70;;;;;;5049888;28;20457;-73
2022/09/14 07:03:46;;;;;;;3.03;0.98;;;19.40;65.70;;;;;;5050234;28;20402;-72
2022/09/14 07:06:14;;;;;;;1.52;0.70;;;19.40;65.70;;;;;;5050375;28;20060;-72
2022/09/14 07:08:41;;;;;;;4.88;1.30;;;19.50;65.80;;;;;;5050718;28;20114;-73
2022/09/14 07:11:10;;;;;;;2.85;1.00;;;19.50;65.80;;;;;;5050804;28;20056;-73
2022/09/14 07:13:37;;;;;;;4.78;1.13;;;19.50;65.80;;;;;;5051112;28;20049;-72
2022/09/14 07:16:04;;;;;;;1.30;0.95;;;19.50;65.80;;;;;;5050862;28;20056;-72
2022/09/14 07:18:31;;;;;;;1.77;0.88;;;19.50;65.80;;;;;;5067513;28;20421;-75
2022/09/14 07:21:01;;;;;;;1.42;0.98;;;19.50;65.80;;;;;;5050706;28;20067;-75
2022/09/14 07:23:28;;;;;;;3.75;1.00;;;19.50;65.80;;;;;;5051424;28;20049;-74
2022/09/14 07:26:00;;;;;;;2.38;0.95;;;19.50;65.80;;;;;;5050669;28;20055;-72
2022/09/14 07:28:28;;;;;;;2.85;0.80;;;19.50;65.80;;;;;;5050660;28;20049;-72
2022/09/14 07:30:55;;;;;;;2.75;0.93;;;19.50;65.80;;;;;;5050629;28;20140;-72
2022/09/14 07:33:21;;;;;;;1.90;1.00;;;19.50;65.80;;;;;;5050866;28;20059;-71
2022/09/14 07:35:48;;;;;;;2.25;0.90;;;19.50;65.80;;;;;;5050627;28;20079;-72
2022/09/14 07:38:16;;;;;;;2.33;1.33;;;19.50;65.80;;;;;;5050065;28;20052;-71
2022/09/14 07:40:42;;;;;;;2.42;0.80;;;19.60;65.80;;;;;;5048567;28;20090;-74
2022/09/14 07:43:09;;;;;;;2.05;0.95;;;19.60;65.80;;;;;;5050423;28;20127;-72
2022/09/14 07:45:37;;;;;;;1.67;0.80;;;19.60;65.80;;;;;;5051606;28;20055;-71
2022/09/14 07:48:04;;;;;;;1.08;0.80;;;19.60;65.80;;;;;;5050696;28;20480;-71
2022/09/14 07:50:31;;;;;;;1.23;1.00;;;19.60;65.70;;;;;;5051198;28;20053;-73
2022/09/14 07:52:58;;;;;;;1.70;1.02;;;19.70;65.70;;;;;;5050230;28;20045;-71
2022/09/14 07:55:24;;;;;;;2.17;0.93;;;19.70;65.60;;;;;;5050423;28;20078;-71
2022/09/14 07:57:51;;;;;;;1.30;0.90;;;19.70;65.60;;;;;;5049361;28;20048;-73
2022/09/14 08:00:20;;;;;;;1.35;0.90;;;19.70;65.50;;;;;;5044314;28;20048;-74
2022/09/14 08:02:53;;;;;;;1.08;0.80;;;19.70;65.50;;;;;;5040725;28;20060;-74
2022/09/14 08:05:20;;;;;;;2.03;0.80;;;19.70;65.40;;;;;;5046806;28;20144;-74
2022/09/14 08:07:47;;;;;;;3.30;0.82;;;19.70;65.40;;;;;;5044588;28;20056;-74
2022/09/14 08:10:14;;;;;;;2.40;0.77;;;19.70;65.40;;;;;;5042494;28;20179;-74
2022/09/14 08:12:41;;;;;;;1.73;0.90;;;19.70;65.40;;;;;;5038646;28;20060;-74
2022/09/14 08:15:08;;;;;;;1.83;0.95;;;19.70;65.30;;;;;;5037386;28;20459;-72
2022/09/14 08:17:35;;;;;;;1.10;0.80;;;19.80;65.30;;;;;;5055005;28;20049;-73
2022/09/14 08:20:05;;;;;;;0.90;0.90;;;19.80;65.30;;;;;;5053925;28;20383;-73
2022/09/14 08:22:31;;;;;;;1.83;0.80;;;19.80;65.30;;;;;;5053794;28;20056;-74
2022/09/14 08:24:58;;;;;;;1.63;0.82;;;19.80;65.30;;;;;;5053604;28;20059;-73
2022/09/14 08:27:25;;;;;;;3.45;0.82;;;19.80;65.30;;;;;;5053875;28;20512;-73
2022/09/14 08:29:52;;;;;;;1.60;0.90;;;19.80;65.40;;;;;;5053214;28;20067;-73
2022/09/14 08:32:18;;;;;;;2.30;0.93;;;20.70;65.80;;;;;;5053160;28;20057;-73
2022/09/14 08:34:47;;;;;;;0.68;0.63;;;19.80;65.30;;;;;;5054907;28;20409;-73
2022/09/14 08:37:15;;;;;;;3.05;0.70;;;19.80;65.30;;;;;;5053849;28;20155;-73
2022/09/14 08:39:42;;;;;;;1.80;0.80;;;19.80;65.20;;;;;;5054631;28;20061;-73
2022/09/14 08:42:11;;;;;;;2.63;0.80;;;19.80;65.20;;;;;;5053380;28;20417;-72
2022/09/14 08:44:40;;;;;;;1.48;0.70;;;19.90;65.30;;;;;;5053114;28;20405;-72
2022/09/14 08:47:09;;;;;;;1.60;0.90;;;19.90;65.20;;;;;;5053533;28;20068;-72
2022/09/14 08:49:42;;;;;;;3.45;0.90;;;19.90;65.20;;;;;;5053264;28;20092;-72
2022/09/14 08:52:18;;;;;;;1.38;0.90;;;19.90;65.20;;;;;;5052716;28;20049;-73
2022/09/14 08:54:45;;;;;;;7.72;1.50;;;19.90;65.30;;;;;;5053402;28;20059;-74
2022/09/14 08:57:18;;;;;;;3.90;1.20;;;19.90;65.40;;;;;;5053401;28;20132;-73
2022/09/14 08:59:50;;;;;;;4.57;1.40;;;19.90;65.40;;;;;;5052314;28;20059;-72
2022/09/14 09:02:25;;;;;;;5.22;1.58;;;19.90;65.50;;;;;;5052045;28;20405;-72
2022/09/14 09:04:53;;;;;;;6.38;1.73;;;19.90;65.60;;;;;;5050511;28;20044;-72
2022/09/14 09:07:28;;;;;;;6.32;1.38;;;20.00;65.70;;;;;;5053111;28;20059;-72
2022/09/14 09:09:58;;;;;;;12.90;2.08;;;20.00;65.70;;;;;;5052463;28;20057;-72
2022/09/14 09:12:35;;;;;;;5.15;1.40;;;20.00;65.70;;;;;;5052289;28;20051;-72
2022/09/14 09:15:04;;;;;;;7.18;1.80;;;20.00;65.80;;;;;;5051555;28;20045;-72
2022/09/14 09:17:33;;;;;;;4.47;1.23;;;20.00;65.70;;;;;;5069201;28;20132;-72
2022/09/14 09:20:10;;;;;;;5.85;1.50;;;20.00;65.70;;;;;;5050899;28;20513;-72
2022/09/14 09:22:41;;;;;;;4.43;1.25;;;20.00;65.70;;;;;;5050627;28;20049;-71
2022/09/14 09:25:13;;;;;;;7.95;1.35;;;20.00;65.70;;;;;;5053375;28;20041;-73
2022/09/14 09:27:39;;;;;;;2.95;1.42;;;20.00;65.70;;;;;;5053390;28;20128;-73
2022/09/14 09:30:08;;;;;;;2.92;1.17;;;20.00;65.70;;;;;;5035599;28;20488;-72
2022/09/14 09:32:35;;;;;;;5.43;1.60;;;20.00;65.60;;;;;;5052049;28;20045;-72
2022/09/14 09:35:02;;;;;;;4.25;1.25;;;20.00;65.60;;;;;;5052724;28;20056;-72
2022/09/14 09:37:30;;;;;;;3.10;1.13;;;20.00;65.70;;;;;;5052139;28;20057;-72
2022/09/14 09:39:58;;;;;;;5.43;1.42;;;20.10;65.70;;;;;;5052802;28;20044;-74
2022/09/14 09:42:27;;;;;;;4.47;1.27;;;20.10;65.60;;;;;;5052503;28;20140;-75
2022/09/14 09:44:58;;;;;;;2.60;1.17;;;20.00;65.60;;;;;;5052998;28;20045;-75
2022/09/14 09:47:26;;;;;;;4.13;1.25;;;20.00;65.50;;;;;;5052727;28;20490;-73
2022/09/14 09:49:57;;;;;;;3.67;1.17;;;20.10;65.60;;;;;;5053241;28;20405;-72
2022/09/14 09:52:24;;;;;;;2.20;1.13;;;20.10;65.60;;;;;;5051321;28;20053;-72
2022/09/14 09:54:52;;;;;;;2.75;1.30;;;20.10;65.70;;;;;;5053110;28;20045;-73
2022/09/14 09:57:22;;;;;;;2.65;1.10;;;20.10;65.70;;;;;;5052514;28;20056;-72
2022/09/14 09:59:49;;;;;;;4.07;1.33;;;20.10;65.60;;;;;;5051915;28;20049;-72
2022/09/14 10:02:27;;;;;;;10.43;2.03;;;20.10;65.60;;;;;;5051720;28;20490;-75
2022/09/14 10:04:59;;;;;;;2.92;1.20;;;20.10;65.60;;;;;;5051794;28;20101;-75
2022/09/14 10:07:26;;;;;;;3.88;1.23;;;20.10;65.60;;;;;;5051812;28;20057;-75
2022/09/14 10:10:00;;;;;;;3.38;1.50;;;20.10;66.20;;;;;;5051830;28;20063;-72
2022/09/14 10:12:28;;;;;;;10.68;2.20;;;20.10;65.70;;;;;;5052522;28;20407;-75
2022/09/14 10:15:07;;;;;;;6.85;1.70;;;20.10;65.70;;;;;;5051652;28;20053;-74
2022/09/14 10:17:34;;;;;;;8.63;2.05;;;20.20;65.70;;;;;;5051810;28;20074;-73
2022/09/14 10:20:01;;;;;;;4.47;1.67;;;20.10;65.60;;;;;;5051605;28;20140;-73
2022/09/14 10:22:29;;;;;;;10.05;2.47;;;20.20;65.60;;;;;;5068231;28;20059;-73
2022/09/14 10:24:57;;;;;;;8.55;2.05;;;20.20;65.50;;;;;;5051263;28;20489;-73
2022/09/14 10:27:47;;;;;;;8.80;2.10;;;20.20;65.40;;;;;;5052113;28;20049;-75
2022/09/14 10:30:16;;;;;;;7.13;1.80;;;20.10;65.20;;;;;;5046345;28;20057;-74
2022/09/14 10:32:46;;;;;;;4.75;1.70;;;20.20;65.20;;;;;;5051646;28;20060;-74
2022/09/14 10:35:14;;;;;;;5.45;1.98;;;20.20;65.10;;;;;;5051238;28;20048;-74
2022/09/14 10:37:49;;;;;;;5.60;1.63;;;20.20;65.10;;;;;;5051402;28;20052;-75
2022/09/14 10:40:18;;;;;;;6.55;1.70;;;20.20;64.90;;;;;;5051035;28;20049;-74
2022/09/14 10:42:53;;;;;;;4.65;1.67;;;20.20;64.80;;;;;;5067995;28;20049;-76
2022/09/14 10:45:23;;;;;;;6.10;2.13;;;20.20;64.90;;;;;;5049630;28;20380;-74
2022/09/14 10:48:05;;;;;;;5.95;1.80;;;20.20;65.00;;;;;;5051170;28;20139;-75
2022/09/14 10:50:41;;;;;;;7.82;1.70;;;20.20;65.10;;;;;;5050964;28;20061;-76
2022/09/14 10:53:15;;;;;;;3.53;1.48;;;20.30;65.20;;;;;;5051290;28;20063;-74
2022/09/14 10:55:46;;;;;;;5.03;1.30;;;20.30;65.80;;;;;;5050715;28;20053;-76
2022/09/14 10:58:29;;;;;;;6.20;1.55;;;20.30;65.80;;;;;;5050727;28;20060;-74
2022/09/14 11:01:02;;;;;;;5.78;1.77;;;20.30;65.20;;;;;;5045061;28;20418;-75
2022/09/14 11:03:41;;;;;;;5.00;1.70;;;20.30;65.20;;;;;;5030903;28;20049;-76
2022/09/14 11:06:11;;;;;;;5.03;1.52;;;20.30;65.20;;;;;;5032134;28;20045;-76
2022/09/14 11:08:40;;;;;;;3.42;1.40;;;20.30;65.30;;;;;;5030885;28;20063;-75
2022/09/14 11:11:27;;;;;;;3.85;1.50;;;20.30;65.20;;;;;;5030825;28;20053;-75
2022/09/14 11:14:04;;;;;;;4.88;1.58;;;20.40;65.10;;;;;;5045192;28;20049;-75
2022/09/14 11:16:57;;;;;;;2.67;1.25;;;20.40;65.30;;;;;;5050937;28;20473;-75
2022/09/14 11:19:29;;;;;;;3.90;1.63;;;20.40;65.20;;;;;;5050942;28;20063;-75
2022/09/14 11:21:59;;;;;;;3.35;1.67;;;20.40;65.20;;;;;;5050663;28;20057;-75
2022/09/14 11:24:30;;;;;;;5.38;1.30;;;20.40;65.10;;;;;;5050113;28;20053;-75
2022/09/14 11:27:01;;;;;;;3.90;1.33;;;20.50;65.20;;;;;;5047432;28;20053;-75
2022/09/14 11:29:31;;;;;;;4.55;1.48;;;20.50;65.00;;;;;;5050527;28;20053;-75
2022/09/14 11:32:00;;;;;;;4.22;1.55;;;20.60;65.00;;;;;;5049875;28;20064;-75
2022/09/14 11:34:29;;;;;;;3.85;1.48;;;20.60;64.90;;;;;;5050357;28;20056;-75
2022/09/14 11:36:58;;;;;;;2.13;1.20;;;20.60;64.80;;;;;;5050214;28;20052;-75
2022/09/14 11:39:26;;;;;;;3.65;1.42;;;20.70;64.80;;;;;;5054101;28;20055;-73
2022/09/14 11:41:55;;;;;;;3.05;1.30;;;20.70;64.70;;;;;;5054199;28;20087;-72
2022/09/14 11:44:23;;;;;;;2.85;1.70;;;20.80;64.50;;;;;;5054503;28;20598;-72
2022/09/14 11:46:55;;;;;;;3.30;1.77;;;20.80;64.50;;;;;;5054088;28;20060;-73
2022/09/14 11:49:24;;;;;;;2.65;1.23;;;20.80;64.30;;;;;;5053840;28;20414;-72
2022/09/14 11:51:53;;;;;;;3.00;1.33;;;20.90;64.40;;;;;;5053904;28;20542;-72
2022/09/14 11:54:21;;;;;;;3.40;1.40;;;20.80;64.30;;;;;;5053526;28;20413;-72
2022/09/14 11:56:48;;;;;;;4.78;1.20;;;20.80;64.30;;;;;;5053712;28;20224;-72
2022/09/14 11:59:49;;;;;;;2.30;1.20;;;20.80;64.40;;;;;;5053608;28;20088;-73
2022/09/14 12:03:01;;;;;;;3.55;1.17;;;20.80;64.30;;;;;;5052905;28;20061;-72
2022/09/14 12:05:35;;;;;;;2.53;1.33;;;20.20;64.10;;;;;;5052075;28;20056;-72
2022/09/14 12:08:20;;;;;;;3.13;1.10;;;20.80;64.50;;;;;;5050751;28;20063;-72
2022/09/14 12:11:04;;;;;;;1.90;1.02;;;20.80;64.50;;;;;;5052467;28;20528;-73
2022/09/14 12:13:31;;;;;;;1.88;1.15;;;20.80;64.50;;;;;;5052184;28;20131;-73
2022/09/14 12:16:03;;;;;;;4.30;1.33;;;20.80;64.50;;;;;;5054693;28;20055;-73
2022/09/14 12:18:31;;;;;;;3.22;1.35;;;20.80;64.50;;;;;;5053671;28;20048;-73
2022/09/14 12:21:06;;;;;;;2.88;1.20;;;20.80;64.50;;;;;;5054347;28;20063;-72
2022/09/14 12:23:42;;;;;;;2.28;1.20;;;20.80;64.40;;;;;;5053685;28;20065;-72
2022/09/14 12:26:28;;;;;;;2.10;1.15;;;20.80;64.50;;;;;;5053554;28;20055;-72
2022/09/14 12:28:57;;;;;;;3.35;1.38;;;20.80;64.60;;;;;;5050885;28;20049;-71
2022/09/14 12:31:46;;;;;;;2.10;1.13;;;20.80;64.60;;;;;;5054862;28;20049;-75
2022/09/14 12:34:17;;;;;;;3.53;1.20;;;20.80;64.50;;;;;;5052073;28;20061;-75
2022/09/14 12:37:27;;;;;;;2.10;1.10;;;20.80;64.60;;;;;;5053078;28;20155;-72
2022/09/14 12:40:13;;;;;;;3.00;1.20;;;20.80;64.50;;;;;;5053921;28;20508;-72
2022/09/14 12:42:39;;;;;;;2.95;1.48;;;20.80;64.50;;;;;;5054517;28;20379;-71
2022/09/14 12:45:40;;;;;;;3.30;1.20;;;20.70;64.50;;;;;;5053208;28;20059;-71
2022/09/14 12:48:08;;;;;;;2.65;1.10;;;20.80;64.50;;;;;;5052416;28;20056;-71
2022/09/14 12:50:36;;;;;;;3.47;1.20;;;20.70;64.50;;;;;;5051696;28;20048;-71
2022/09/14 12:53:21;;;;;;;2.25;1.10;;;20.70;64.40;;;;;;5052712;28;20061;-71
2022/09/14 12:55:57;;;;;;;2.65;1.40;;;20.80;64.40;;;;;;5066629;28;20049;-72
2022/09/14 12:58:45;;;;;;;2.05;1.20;;;20.70;64.50;;;;;;5052750;28;20056;-73
2022/09/14 13:01:23;;;;;;;2.53;1.40;;;20.80;64.60;;;;;;5045673;28;20056;-71